sensor_id;sensor_type;location;lat;lon;timestamp;pressure;altitude;pressure_sealevel;temperature;humidity
45523;BME280;31254;51.680;5.394;2023-06-24T00:01:29;102445.88;;;21.29;76.37
45523;BME280;31254;51.680;5.394;2023-06-24T00:03:58;102435.50;;;21.23;76.52
45523;BME280;31254;51.680;5.394;2023-06-24T00:06:24;102426.56;;;21.12;76.19
45523;BME280;31254;51.680;5.394;2023-06-24T00:08:54;102433.63;;;21.15;76.15
45523;BME280;31254;51.680;5.394;2023-06-24T00:11:30;102438.69;;;21.11;76.05
45523;BME280;31254;51.680;5.394;2023-06-24T00:13:57;102429.75;;;21.01;76.23
45523;BME280;31254;51.680;5.394;2023-06-24T00:16:24;102420.25;;;20.87;76.45
45523;BME280;31254;51.680;5.394;2023-06-24T00:18:54;102449.16;;;21.01;76.27
45523;BME280;31254;51.680;5.394;2023-06-24T00:21:25;102444.16;;;20.96;76.24
45523;BME280;31254;51.680;5.394;2023-06-24T00:24:00;102447.28;;;20.93;76.39
45523;BME280;31254;51.680;5.394;2023-06-24T00:26:32;102453.53;;;20.87;76.75
45523;BME280;31254;51.680;5.394;2023-06-24T00:29:01;102455.63;;;20.85;76.49
45523;BME280;31254;51.680;5.394;2023-06-24T00:31:31;102457.56;;;20.76;76.42
45523;BME280;31254;51.680;5.394;2023-06-24T00:33:57;102458.28;;;20.70;76.86
45523;BME280;31254;51.680;5.394;2023-06-24T00:36:24;102454.47;;;20.63;76.84
45523;BME280;31254;51.680;5.394;2023-06-24T00:38:51;102471.63;;;20.67;77.07
45523;BME280;31254;51.680;5.394;2023-06-24T00:41:20;102445.50;;;20.53;76.84
45523;BME280;31254;51.680;5.394;2023-06-24T00:43:47;102449.47;;;20.50;76.43
45523;BME280;31254;51.680;5.394;2023-06-24T00:46:14;102452.25;;;20.50;76.46
45523;BME280;31254;51.680;5.394;2023-06-24T00:48:44;102451.56;;;20.48;75.83
45523;BME280;31254;51.680;5.394;2023-06-24T00:51:11;102443.09;;;20.41;75.67
45523;BME280;31254;51.680;5.394;2023-06-24T00:53:40;102450.16;;;20.44;76.08
45523;BME280;31254;51.680;5.394;2023-06-24T00:56:09;102461.44;;;20.42;76.00
45523;BME280;31254;51.680;5.394;2023-06-24T00:58:40;102455.22;;;20.40;76.27
45523;BME280;31254;51.680;5.394;2023-06-24T01:01:07;102436.69;;;20.24;76.12
45523;BME280;31254;51.680;5.394;2023-06-24T01:03:36;102454.88;;;20.35;75.97
45523;BME280;31254;51.680;5.394;2023-06-24T01:06:03;102458.84;;;20.33;75.88
45523;BME280;31254;51.680;5.394;2023-06-24T01:08:30;102442.41;;;20.23;75.83
45523;BME280;31254;51.680;5.394;2023-06-24T01:10:57;102439.66;;;20.23;75.82
45523;BME280;31254;51.680;5.394;2023-06-24T01:13:26;102443.47;;;20.22;75.55
45523;BME280;31254;51.680;5.394;2023-06-24T01:15:54;102442.59;;;20.13;74.91
45523;BME280;31254;51.680;5.394;2023-06-24T01:18:40;102431.72;;;20.03;74.58
45523;BME280;31254;51.680;5.394;2023-06-24T01:21:15;102436.22;;;19.96;74.00
45523;BME280;31254;51.680;5.394;2023-06-24T01:26:51;102437.25;;;19.95;73.85
45523;BME280;31254;51.680;5.394;2023-06-24T01:30:11;102437.78;;;19.90;73.70
45523;BME280;31254;51.680;5.394;2023-06-24T01:32:44;102431.88;;;19.85;73.72
45523;BME280;31254;51.680;5.394;2023-06-24T01:35:24;102428.44;;;19.83;73.60
45523;BME280;31254;51.680;5.394;2023-06-24T01:37:53;102413.00;;;19.72;74.03
45523;BME280;31254;51.680;5.394;2023-06-24T01:40:34;102425.63;;;19.75;73.84
45523;BME280;31254;51.680;5.394;2023-06-24T01:43:04;102428.28;;;19.77;73.56
45523;BME280;31254;51.680;5.394;2023-06-24T01:45:37;102421.13;;;19.74;73.37
45523;BME280;31254;51.680;5.394;2023-06-24T01:48:11;102404.00;;;19.62;73.27
45523;BME280;31254;51.680;5.394;2023-06-24T01:50:44;102420.78;;;19.69;73.43
45523;BME280;31254;51.680;5.394;2023-06-24T01:53:14;102427.72;;;19.65;73.59
45523;BME280;31254;51.680;5.394;2023-06-24T01:55:42;102407.78;;;19.53;73.93
45523;BME280;31254;51.680;5.394;2023-06-24T01:58:11;102432.38;;;19.56;73.90
45523;BME280;31254;51.680;5.394;2023-06-24T02:00:39;102420.25;;;19.49;74.13
45523;BME280;31254;51.680;5.394;2023-06-24T02:03:07;102423.88;;;19.49;74.06
45523;BME280;31254;51.680;5.394;2023-06-24T02:05:35;102401.22;;;19.38;74.25
45523;BME280;31254;51.680;5.394;2023-06-24T02:08:08;102417.84;;;19.46;74.24
45523;BME280;31254;51.680;5.394;2023-06-24T02:10:38;102295.28;;;18.70;74.33
45523;BME280;31254;51.680;5.394;2023-06-24T02:13:10;102417.50;;;19.41;74.60
45523;BME280;31254;51.680;5.394;2023-06-24T02:15:39;102400.50;;;19.27;74.96
45523;BME280;31254;51.680;5.394;2023-06-24T02:18:09;102412.97;;;19.31;75.07
45523;BME280;31254;51.680;5.394;2023-06-24T02:20:38;102421.59;;;19.28;75.34
45523;BME280;31254;51.680;5.394;2023-06-24T02:23:07;102419.16;;;19.25;75.38
45523;BME280;31254;51.680;5.394;2023-06-24T02:25:36;102405.50;;;19.15;75.45
45523;BME280;31254;51.680;5.394;2023-06-24T02:28:07;102425.03;;;19.22;75.39
45523;BME280;31254;51.680;5.394;2023-06-24T02:30:35;102419.84;;;19.19;75.63
45523;BME280;31254;51.680;5.394;2023-06-24T02:33:03;102410.16;;;19.07;75.52
45523;BME280;31254;51.680;5.394;2023-06-24T02:35:30;102411.69;;;19.09;75.69
45523;BME280;31254;51.680;5.394;2023-06-24T02:37:56;102423.81;;;19.08;75.78
45523;BME280;31254;51.680;5.394;2023-06-24T02:40:23;102421.53;;;19.04;76.07
45523;BME280;31254;51.680;5.394;2023-06-24T02:42:51;102415.66;;;18.98;76.30
45523;BME280;31254;51.680;5.394;2023-06-24T02:45:18;102384.59;;;18.78;76.48
45523;BME280;31254;51.680;5.394;2023-06-24T02:47:48;102429.47;;;18.98;76.58
45523;BME280;31254;51.680;5.394;2023-06-24T02:50:16;102402.59;;;18.82;76.90
45523;BME280;31254;51.680;5.394;2023-06-24T02:52:43;102385.63;;;18.69;76.86
45523;BME280;31254;51.680;5.394;2023-06-24T02:55:11;102415.97;;;18.87;77.14
45523;BME280;31254;51.680;5.394;2023-06-24T02:57:44;102419.06;;;18.84;77.46
45523;BME280;31254;51.680;5.394;2023-06-24T03:00:11;102418.31;;;18.82;77.95
45523;BME280;31254;51.680;5.394;2023-06-24T03:02:40;102413.13;;;18.79;77.59
45523;BME280;31254;51.680;5.394;2023-06-24T03:05:12;102413.97;;;18.71;77.74
45523;BME280;31254;51.680;5.394;2023-06-24T03:07:39;102425.72;;;18.73;77.84
45523;BME280;31254;51.680;5.394;2023-06-24T03:10:06;102414.09;;;18.61;78.01
45523;BME280;31254;51.680;5.394;2023-06-24T03:12:37;102441.56;;;18.63;77.84
45523;BME280;31254;51.680;5.394;2023-06-24T03:15:06;102429.56;;;18.54;77.95
45523;BME280;31254;51.680;5.394;2023-06-24T03:17:35;102436.53;;;18.58;77.97
45523;BME280;31254;51.680;5.394;2023-06-24T03:20:04;102421.78;;;18.50;77.69
45523;BME280;31254;51.680;5.394;2023-06-24T03:22:31;102432.50;;;18.53;77.50
45523;BME280;31254;51.680;5.394;2023-06-24T03:24:59;102426.44;;;18.49;77.76
45523;BME280;31254;51.680;5.394;2023-06-24T03:27:31;102418.13;;;18.41;77.54
45523;BME280;31254;51.680;5.394;2023-06-24T03:29:57;102425.91;;;18.45;77.47
45523;BME280;31254;51.680;5.394;2023-06-24T03:32:24;102271.72;;;17.54;77.30
45523;BME280;31254;51.680;5.394;2023-06-24T03:34:55;102417.09;;;18.42;77.42
45523;BME280;31254;51.680;5.394;2023-06-24T03:37:22;102431.28;;;18.47;77.23
45523;BME280;31254;51.680;5.394;2023-06-24T03:39:51;102422.78;;;18.40;77.27
45523;BME280;31254;51.680;5.394;2023-06-24T03:42:18;102437.81;;;18.46;77.37
45523;BME280;31254;51.680;5.394;2023-06-24T03:44:46;102433.34;;;18.45;77.35
45523;BME280;31254;51.680;5.394;2023-06-24T03:47:14;102438.50;;;18.48;77.39
45523;BME280;31254;51.680;5.394;2023-06-24T03:49:41;102437.50;;;18.49;77.38
45523;BME280;31254;51.680;5.394;2023-06-24T03:52:08;102433.72;;;18.50;77.13
45523;BME280;31254;51.680;5.394;2023-06-24T03:54:36;102435.16;;;18.62;76.75
45523;BME280;31254;51.680;5.394;2023-06-24T03:57:03;102431.19;;;18.99;76.02
45523;BME280;31254;51.680;5.394;2023-06-24T03:59:31;102434.34;;;19.13;75.50
45523;BME280;31254;51.680;5.394;2023-06-24T04:02:01;102430.69;;;19.04;75.73
45523;BME280;31254;51.680;5.394;2023-06-24T04:04:28;102437.97;;;19.05;75.86
45523;BME280;31254;51.680;5.394;2023-06-24T04:06:54;102431.16;;;19.42;74.90
45523;BME280;31254;51.680;5.394;2023-06-24T04:09:24;102435.19;;;20.05;73.31
45523;BME280;31254;51.680;5.394;2023-06-24T04:11:52;102440.09;;;20.59;71.30
45523;BME280;31254;51.680;5.394;2023-06-24T04:14:19;102434.47;;;21.24;69.30
45523;BME280;31254;51.680;5.394;2023-06-24T04:16:52;102433.38;;;22.55;65.16
45523;BME280;31254;51.680;5.394;2023-06-24T04:19:19;102434.47;;;23.79;61.81
45523;BME280;31254;51.680;5.394;2023-06-24T04:21:49;102421.53;;;24.84;58.49
45523;BME280;31254;51.680;5.394;2023-06-24T04:24:16;102424.63;;;25.78;56.04
45523;BME280;31254;51.680;5.394;2023-06-24T04:26:45;102418.97;;;26.64;53.68
45523;BME280;31254;51.680;5.394;2023-06-24T04:29:14;102423.34;;;27.51;51.05
45523;BME280;31254;51.680;5.394;2023-06-24T04:31:41;102414.59;;;28.23;49.49
45523;BME280;31254;51.680;5.394;2023-06-24T04:34:09;102413.34;;;28.99;47.97
45523;BME280;31254;51.680;5.394;2023-06-24T04:36:36;102425.31;;;29.67;46.63
45523;BME280;31254;51.680;5.394;2023-06-24T04:39:03;102408.81;;;30.13;45.37
45523;BME280;31254;51.680;5.394;2023-06-24T04:41:29;102422.09;;;30.77;43.98
45523;BME280;31254;51.680;5.394;2023-06-24T04:43:56;102418.16;;;31.30;42.67
45523;BME280;31254;51.680;5.394;2023-06-24T04:46:28;102424.84;;;31.87;42.01
45523;BME280;31254;51.680;5.394;2023-06-24T04:48:54;102420.38;;;32.42;40.23
45523;BME280;31254;51.680;5.394;2023-06-24T04:51:21;102396.31;;;32.78;39.93
45523;BME280;31254;51.680;5.394;2023-06-24T04:53:48;102417.44;;;33.42;38.67
45523;BME280;31254;51.680;5.394;2023-06-24T04:56:15;102408.84;;;33.92;37.78
45523;BME280;31254;51.680;5.394;2023-06-24T04:58:41;102421.13;;;34.40;36.34
45523;BME280;31254;51.680;5.394;2023-06-24T05:01:09;102421.41;;;34.91;35.64
45523;BME280;31254;51.680;5.394;2023-06-24T05:03:38;102427.81;;;35.40;34.65
45523;BME280;31254;51.680;5.394;2023-06-24T05:06:05;102426.75;;;35.92;33.68
45523;BME280;31254;51.680;5.394;2023-06-24T05:08:32;102432.41;;;36.44;32.86
45523;BME280;31254;51.680;5.394;2023-06-24T05:11:01;102427.19;;;36.76;31.67
45523;BME280;31254;51.680;5.394;2023-06-24T05:13:27;102312.22;;;36.38;30.94
45523;BME280;31254;51.680;5.394;2023-06-24T05:15:54;102425.53;;;37.25;30.84
45523;BME280;31254;51.680;5.394;2023-06-24T05:18:21;102415.16;;;37.45;30.12
45523;BME280;31254;51.680;5.394;2023-06-24T05:20:48;102428.34;;;37.75;29.89
45523;BME280;31254;51.680;5.394;2023-06-24T05:23:15;102431.72;;;38.17;28.90
45523;BME280;31254;51.680;5.394;2023-06-24T05:25:42;102425.06;;;38.51;28.37
45523;BME280;31254;51.680;5.394;2023-06-24T05:28:09;102435.34;;;38.22;28.49
45523;BME280;31254;51.680;5.394;2023-06-24T05:30:38;102419.53;;;38.35;28.62
45523;BME280;31254;51.680;5.394;2023-06-24T05:33:04;102421.66;;;38.25;28.52
45523;BME280;31254;51.680;5.394;2023-06-24T05:35:34;102427.00;;;38.61;28.19
45523;BME280;31254;51.680;5.394;2023-06-24T05:38:06;102422.41;;;38.84;27.29
45523;BME280;31254;51.680;5.394;2023-06-24T05:40:33;102424.88;;;39.34;26.84
45523;BME280;31254;51.680;5.394;2023-06-24T05:42:59;102434.53;;;39.90;26.51
45523;BME280;31254;51.680;5.394;2023-06-24T05:45:27;102440.75;;;39.97;25.98
45523;BME280;31254;51.680;5.394;2023-06-24T05:47:53;102436.56;;;40.36;25.48
45523;BME280;31254;51.680;5.394;2023-06-24T05:50:20;102445.56;;;40.29;25.44
45523;BME280;31254;51.680;5.394;2023-06-24T05:52:47;102435.34;;;40.42;25.20
45523;BME280;31254;51.680;5.394;2023-06-24T05:55:16;102422.53;;;40.81;24.65
45523;BME280;31254;51.680;5.394;2023-06-24T05:57:43;102429.69;;;41.34;24.18
45523;BME280;31254;51.680;5.394;2023-06-24T06:00:10;102436.34;;;41.89;24.03
45523;BME280;31254;51.680;5.394;2023-06-24T06:02:40;102436.28;;;42.25;23.26
45523;BME280;31254;51.680;5.394;2023-06-24T06:05:07;102447.25;;;42.32;22.65
45523;BME280;31254;51.680;5.394;2023-06-24T06:07:34;102425.00;;;42.37;22.81
45523;BME280;31254;51.680;5.394;2023-06-24T06:10:04;102423.31;;;42.68;21.92
45523;BME280;31254;51.680;5.394;2023-06-24T06:12:31;102424.84;;;42.74;21.80
45523;BME280;31254;51.680;5.394;2023-06-24T06:14:58;102432.38;;;43.10;21.72
45523;BME280;31254;51.680;5.394;2023-06-24T06:17:25;102433.13;;;42.84;21.79
45523;BME280;31254;51.680;5.394;2023-06-24T06:19:54;102432.78;;;42.77;21.92
45523;BME280;31254;51.680;5.394;2023-06-24T06:22:21;102438.84;;;42.76;21.52
45523;BME280;31254;51.680;5.394;2023-06-24T06:24:47;102435.41;;;42.96;21.71
45523;BME280;31254;51.680;5.394;2023-06-24T06:27:14;102403.78;;;42.87;20.54
45523;BME280;31254;51.680;5.394;2023-06-24T06:29:41;102439.47;;;43.13;20.89
45523;BME280;31254;51.680;5.394;2023-06-24T06:32:10;102425.28;;;43.16;20.60
45523;BME280;31254;51.680;5.394;2023-06-24T06:34:36;102447.94;;;43.44;20.44
45523;BME280;31254;51.680;5.394;2023-06-24T06:37:05;102438.63;;;43.29;20.38
45523;BME280;31254;51.680;5.394;2023-06-24T06:39:32;102446.91;;;43.75;20.11
45523;BME280;31254;51.680;5.394;2023-06-24T06:41:59;102453.34;;;43.72;20.19
45523;BME280;31254;51.680;5.394;2023-06-24T06:44:28;102452.34;;;43.68;20.40
45523;BME280;31254;51.680;5.394;2023-06-24T06:46:57;102439.81;;;43.90;19.61
45523;BME280;31254;51.680;5.394;2023-06-24T06:49:26;102444.25;;;43.61;20.16
45523;BME280;31254;51.680;5.394;2023-06-24T06:51:54;102424.31;;;43.47;19.93
45523;BME280;31254;51.680;5.394;2023-06-24T06:54:21;102451.84;;;43.48;19.95
45523;BME280;31254;51.680;5.394;2023-06-24T06:56:47;102450.41;;;43.10;19.92
45523;BME280;31254;51.680;5.394;2023-06-24T06:59:14;102456.31;;;43.05;20.11
45523;BME280;31254;51.680;5.394;2023-06-24T07:01:41;102456.59;;;42.86;20.56
45523;BME280;31254;51.680;5.394;2023-06-24T07:04:07;102448.75;;;43.18;19.86
45523;BME280;31254;51.680;5.394;2023-06-24T07:06:34;102464.66;;;43.68;20.06
45523;BME280;31254;51.680;5.394;2023-06-24T07:09:01;102458.38;;;44.10;19.29
45523;BME280;31254;51.680;5.394;2023-06-24T07:11:27;102451.34;;;43.81;19.71
45523;BME280;31254;51.680;5.394;2023-06-24T07:13:54;102456.78;;;44.39;19.11
45523;BME280;31254;51.680;5.394;2023-06-24T07:16:21;102462.31;;;44.52;18.81
45523;BME280;31254;51.680;5.394;2023-06-24T07:18:48;102469.38;;;44.94;18.44
45523;BME280;31254;51.680;5.394;2023-06-24T07:21:14;102468.34;;;45.28;18.35
45523;BME280;31254;51.680;5.394;2023-06-24T07:23:43;102462.59;;;45.49;18.37
45523;BME280;31254;51.680;5.394;2023-06-24T07:26:10;102464.81;;;45.65;17.72
45523;BME280;31254;51.680;5.394;2023-06-24T07:28:37;102467.34;;;45.24;18.25
45523;BME280;31254;51.680;5.394;2023-06-24T07:31:04;102466.66;;;45.27;18.04
45523;BME280;31254;51.680;5.394;2023-06-24T07:33:30;102459.47;;;45.12;17.64
45523;BME280;31254;51.680;5.394;2023-06-24T07:35:57;102455.59;;;45.08;17.73
45523;BME280;31254;51.680;5.394;2023-06-24T07:38:24;102439.75;;;45.02;18.00
45523;BME280;31254;51.680;5.394;2023-06-24T07:40:50;102464.03;;;45.34;17.79
45523;BME280;31254;51.680;5.394;2023-06-24T07:43:17;102454.91;;;45.32;17.52
45523;BME280;31254;51.680;5.394;2023-06-24T07:45:44;102465.66;;;45.02;17.46
45523;BME280;31254;51.680;5.394;2023-06-24T07:48:13;102467.50;;;44.12;17.87
45523;BME280;31254;51.680;5.394;2023-06-24T07:50:39;102470.53;;;44.24;17.78
45523;BME280;31254;51.680;5.394;2023-06-24T07:53:06;102462.72;;;44.33;18.22
45523;BME280;31254;51.680;5.394;2023-06-24T07:55:35;102462.66;;;44.51;17.63
45523;BME280;31254;51.680;5.394;2023-06-24T07:58:02;102468.41;;;44.51;17.73
45523;BME280;31254;51.680;5.394;2023-06-24T08:00:29;102459.75;;;44.60;17.16
45523;BME280;31254;51.680;5.394;2023-06-24T08:02:59;102451.59;;;44.23;17.79
45523;BME280;31254;51.680;5.394;2023-06-24T08:05:26;102459.00;;;44.33;17.55
45523;BME280;31254;51.680;5.394;2023-06-24T08:07:53;102465.16;;;44.61;17.16
45523;BME280;31254;51.680;5.394;2023-06-24T08:10:22;102462.81;;;44.63;17.55
45523;BME280;31254;51.680;5.394;2023-06-24T08:12:51;102440.06;;;44.70;17.60
45523;BME280;31254;51.680;5.394;2023-06-24T08:15:18;102461.28;;;44.57;17.47
45523;BME280;31254;51.680;5.394;2023-06-24T08:17:53;102450.84;;;44.44;17.84
45523;BME280;31254;51.680;5.394;2023-06-24T08:20:21;102452.66;;;44.57;17.80
45523;BME280;31254;51.680;5.394;2023-06-24T08:22:48;102454.94;;;44.72;17.17
45523;BME280;31254;51.680;5.394;2023-06-24T08:25:15;102379.94;;;44.18;17.48
45523;BME280;31254;51.680;5.394;2023-06-24T08:27:42;102436.50;;;44.35;17.44
45523;BME280;31254;51.680;5.394;2023-06-24T08:30:14;102442.63;;;44.25;17.55
45523;BME280;31254;51.680;5.394;2023-06-24T08:32:43;102446.69;;;44.24;17.44
45523;BME280;31254;51.680;5.394;2023-06-24T08:35:10;102441.00;;;43.80;17.70
45523;BME280;31254;51.680;5.394;2023-06-24T08:37:39;102416.88;;;43.55;17.74
45523;BME280;31254;51.680;5.394;2023-06-24T08:40:06;102434.94;;;43.73;17.68
45523;BME280;31254;51.680;5.394;2023-06-24T08:42:33;102447.97;;;43.79;17.74
45523;BME280;31254;51.680;5.394;2023-06-24T08:45:00;102435.81;;;43.82;17.91
45523;BME280;31254;51.680;5.394;2023-06-24T08:47:28;102431.06;;;43.42;17.71
45523;BME280;31254;51.680;5.394;2023-06-24T08:50:02;102432.47;;;42.87;18.26
45523;BME280;31254;51.680;5.394;2023-06-24T08:52:32;102435.59;;;42.68;18.28
45523;BME280;31254;51.680;5.394;2023-06-24T08:55:01;102431.66;;;42.15;17.96
45523;BME280;31254;51.680;5.394;2023-06-24T08:57:30;102410.31;;;41.99;18.49
45523;BME280;31254;51.680;5.394;2023-06-24T08:59:57;102423.34;;;41.82;18.58
45523;BME280;31254;51.680;5.394;2023-06-24T09:02:24;102426.44;;;41.50;18.70
45523;BME280;31254;51.680;5.394;2023-06-24T09:04:51;102422.97;;;41.61;18.84
45523;BME280;31254;51.680;5.394;2023-06-24T09:07:28;102420.25;;;41.20;19.01
45523;BME280;31254;51.680;5.394;2023-06-24T09:09:55;102422.81;;;41.07;19.25
45523;BME280;31254;51.680;5.394;2023-06-24T09:12:30;102410.78;;;40.83;19.91
45523;BME280;31254;51.680;5.394;2023-06-24T09:14:58;102404.13;;;40.87;19.37
45523;BME280;31254;51.680;5.394;2023-06-24T09:17:25;102425.88;;;41.11;19.63
45523;BME280;31254;51.680;5.394;2023-06-24T09:20:03;102424.09;;;41.01;19.41
45523;BME280;31254;51.680;5.394;2023-06-24T09:22:31;102411.00;;;40.45;19.74
45523;BME280;31254;51.680;5.394;2023-06-24T09:25:01;102410.41;;;40.15;20.32
45523;BME280;31254;51.680;5.394;2023-06-24T09:27:31;102420.59;;;40.21;20.75
45523;BME280;31254;51.680;5.394;2023-06-24T09:29:58;102423.66;;;40.25;20.78
45523;BME280;31254;51.680;5.394;2023-06-24T09:32:31;102410.66;;;40.32;20.08
45523;BME280;31254;51.680;5.394;2023-06-24T09:35:03;102378.75;;;39.78;21.11
45523;BME280;31254;51.680;5.394;2023-06-24T09:37:32;102401.66;;;39.92;21.02
45523;BME280;31254;51.680;5.394;2023-06-24T09:40:00;102401.53;;;39.83;21.38
45523;BME280;31254;51.680;5.394;2023-06-24T09:42:28;102383.63;;;38.83;21.90
45523;BME280;31254;51.680;5.394;2023-06-24T09:44:55;102404.69;;;38.38;22.32
45523;BME280;31254;51.680;5.394;2023-06-24T09:47:24;102380.75;;;38.15;22.72
45523;BME280;31254;51.680;5.394;2023-06-24T09:49:53;102400.31;;;37.93;22.64
45523;BME280;31254;51.680;5.394;2023-06-24T09:52:21;102386.91;;;37.59;22.84
45523;BME280;31254;51.680;5.394;2023-06-24T09:54:50;102392.00;;;37.22;22.86
45523;BME280;31254;51.680;5.394;2023-06-24T09:57:23;102394.47;;;36.84;23.78
45523;BME280;31254;51.680;5.394;2023-06-24T09:59:55;102390.88;;;36.48;24.17
45523;BME280;31254;51.680;5.394;2023-06-24T10:02:23;102395.50;;;36.28;24.89
45523;BME280;31254;51.680;5.394;2023-06-24T10:04:51;102385.56;;;36.20;24.78
45523;BME280;31254;51.680;5.394;2023-06-24T10:07:19;102398.06;;;36.04;24.24
45523;BME280;31254;51.680;5.394;2023-06-24T10:09:48;102386.97;;;35.41;24.75
45523;BME280;31254;51.680;5.394;2023-06-24T10:12:15;102401.06;;;35.15;25.08
45523;BME280;31254;51.680;5.394;2023-06-24T10:14:42;102363.44;;;34.61;26.26
45523;BME280;31254;51.680;5.394;2023-06-24T10:17:09;102391.75;;;34.56;26.80
45523;BME280;31254;51.680;5.394;2023-06-24T10:19:39;102385.13;;;34.35;27.52
45523;BME280;31254;51.680;5.394;2023-06-24T10:22:09;102346.72;;;34.07;26.86
45523;BME280;31254;51.680;5.394;2023-06-24T10:24:41;102391.28;;;34.22;27.85
45523;BME280;31254;51.680;5.394;2023-06-24T10:27:22;102384.56;;;34.33;27.76
45523;BME280;31254;51.680;5.394;2023-06-24T10:29:51;102392.78;;;34.35;27.58
45523;BME280;31254;51.680;5.394;2023-06-24T10:32:22;102382.94;;;34.48;28.25
45523;BME280;31254;51.680;5.394;2023-06-24T10:34:56;102384.66;;;34.49;27.84
45523;BME280;31254;51.680;5.394;2023-06-24T10:37:26;102390.41;;;34.69;28.26
45523;BME280;31254;51.680;5.394;2023-06-24T10:40:05;102383.53;;;34.55;27.81
45523;BME280;31254;51.680;5.394;2023-06-24T10:42:41;102378.41;;;34.04;27.72
45523;BME280;31254;51.680;5.394;2023-06-24T10:47:55;102373.31;;;34.06;28.99
45523;BME280;31254;51.680;5.394;2023-06-24T10:50:36;102377.13;;;34.22;28.54
45523;BME280;31254;51.680;5.394;2023-06-24T10:53:08;102370.72;;;34.42;28.85
45523;BME280;31254;51.680;5.394;2023-06-24T10:55:35;102360.25;;;34.42;29.15
45523;BME280;31254;51.680;5.394;2023-06-24T11:00:39;102371.22;;;34.82;29.03
45523;BME280;31254;51.680;5.394;2023-06-24T11:03:13;102374.97;;;34.97;28.85
45523;BME280;31254;51.680;5.394;2023-06-24T11:05:42;102373.81;;;35.04;28.75
45523;BME280;31254;51.680;5.394;2023-06-24T11:08:10;102364.19;;;35.05;28.55
45523;BME280;31254;51.680;5.394;2023-06-24T11:10:44;102356.25;;;35.07;28.19
45523;BME280;31254;51.680;5.394;2023-06-24T11:13:12;102358.53;;;35.05;28.19
45523;BME280;31254;51.680;5.394;2023-06-24T11:15:41;102361.34;;;35.00;28.71
45523;BME280;31254;51.680;5.394;2023-06-24T11:18:11;102352.22;;;34.77;28.08
45523;BME280;31254;51.680;5.394;2023-06-24T11:20:39;102319.69;;;34.27;28.87
45523;BME280;31254;51.680;5.394;2023-06-24T11:23:10;102351.00;;;34.68;29.06
45523;BME280;31254;51.680;5.394;2023-06-24T11:25:45;102346.28;;;34.84;28.99
45523;BME280;31254;51.680;5.394;2023-06-24T11:28:13;102343.50;;;34.99;29.17
45523;BME280;31254;51.680;5.394;2023-06-24T11:30:40;102342.41;;;35.15;28.72
45523;BME280;31254;51.680;5.394;2023-06-24T11:33:07;102342.97;;;35.23;28.38
45523;BME280;31254;51.680;5.394;2023-06-24T11:35:34;102335.81;;;34.89;28.47
45523;BME280;31254;51.680;5.394;2023-06-24T11:38:05;102336.97;;;34.98;28.83
45523;BME280;31254;51.680;5.394;2023-06-24T11:40:33;102328.50;;;35.14;28.59
45523;BME280;31254;51.680;5.394;2023-06-24T11:43:01;102329.91;;;35.16;27.67
45523;BME280;31254;51.680;5.394;2023-06-24T11:45:31;102323.13;;;35.28;28.51
45523;BME280;31254;51.680;5.394;2023-06-24T11:48:02;102329.13;;;35.31;27.25
45523;BME280;31254;51.680;5.394;2023-06-24T11:50:31;102333.38;;;35.29;27.27
45523;BME280;31254;51.680;5.394;2023-06-24T11:52:58;102313.44;;;35.08;27.92
45523;BME280;31254;51.680;5.394;2023-06-24T11:55:26;102317.16;;;35.09;27.56
45523;BME280;31254;51.680;5.394;2023-06-24T11:58:01;102312.06;;;35.16;27.75
45523;BME280;31254;51.680;5.394;2023-06-24T12:00:49;102300.13;;;35.04;27.56
45523;BME280;31254;51.680;5.394;2023-06-24T12:03:22;102322.03;;;35.24;27.40
45523;BME280;31254;51.680;5.394;2023-06-24T12:05:51;102309.53;;;35.50;28.05
45523;BME280;31254;51.680;5.394;2023-06-24T12:08:20;102309.81;;;35.64;27.65
45523;BME280;31254;51.680;5.394;2023-06-24T12:10:49;102309.53;;;35.61;26.99
45523;BME280;31254;51.680;5.394;2023-06-24T12:13:16;102303.03;;;35.35;27.81
45523;BME280;31254;51.680;5.394;2023-06-24T12:15:42;102310.34;;;35.10;27.62
45523;BME280;31254;51.680;5.394;2023-06-24T12:18:12;102275.72;;;34.77;27.36
45523;BME280;31254;51.680;5.394;2023-06-24T12:20:41;102298.41;;;34.92;27.17
45523;BME280;31254;51.680;5.394;2023-06-24T12:23:12;102295.56;;;34.87;27.80
45523;BME280;31254;51.680;5.394;2023-06-24T12:25:38;102309.34;;;34.63;28.20
45523;BME280;31254;51.680;5.394;2023-06-24T12:28:07;102309.59;;;34.51;28.30
45523;BME280;31254;51.680;5.394;2023-06-24T12:30:36;102291.03;;;34.86;28.41
45523;BME280;31254;51.680;5.394;2023-06-24T12:33:06;102292.75;;;35.13;27.83
45523;BME280;31254;51.680;5.394;2023-06-24T12:35:38;102297.91;;;35.37;27.92
45523;BME280;31254;51.680;5.394;2023-06-24T12:38:05;102289.09;;;35.59;27.64
45523;BME280;31254;51.680;5.394;2023-06-24T12:40:34;102273.78;;;35.85;28.08
45523;BME280;31254;51.680;5.394;2023-06-24T12:43:01;102280.28;;;35.91;28.07
45523;BME280;31254;51.680;5.394;2023-06-24T12:45:28;102286.78;;;36.02;26.77
45523;BME280;31254;51.680;5.394;2023-06-24T12:47:54;102283.09;;;36.01;27.85
45523;BME280;31254;51.680;5.394;2023-06-24T12:50:21;102276.81;;;36.10;27.72
45523;BME280;31254;51.680;5.394;2023-06-24T12:52:48;102278.25;;;36.02;26.72
45523;BME280;31254;51.680;5.394;2023-06-24T12:55:15;102277.44;;;35.96;27.19
45523;BME280;31254;51.680;5.394;2023-06-24T12:57:44;102277.78;;;35.48;27.21
45523;BME280;31254;51.680;5.394;2023-06-24T13:00:11;102209.63;;;34.56;27.46
45523;BME280;31254;51.680;5.394;2023-06-24T13:02:45;102277.16;;;34.90;27.71
45523;BME280;31254;51.680;5.394;2023-06-24T13:05:12;102278.41;;;34.36;27.99
45523;BME280;31254;51.680;5.394;2023-06-24T13:07:39;102277.25;;;34.42;28.85